sensor_id;sensor_type;location;lat;lon;timestamp;P1;durP1;ratioP1;P2;durP2;ratioP2
76935;SDS011;65881;52.438;16.744;2023-05-20T00:00:14;13.60;;;9.32;;
76935;SDS011;65881;52.438;16.744;2023-05-20T00:02:40;12.50;;;8.50;;
76935;SDS011;65881;52.438;16.744;2023-05-20T00:05:05;19.05;;;9.60;;
76935;SDS011;65881;52.438;16.744;2023-05-20T00:07:32;13.52;;;9.15;;
76935;SDS011;65881;52.438;16.744;2023-05-20T00:09:57;14.13;;;8.43;;
76935;SDS011;65881;52.438;16.744;2023-05-20T00:12:23;14.48;;;8.93;;
76935;SDS011;65881;52.438;16.744;2023-05-20T00:14:49;12.45;;;9.75;;
76935;SDS011;65881;52.438;16.744;2023-05-20T00:17:15;13.25;;;9.38;;
76935;SDS011;65881;52.438;16.744;2023-05-20T00:19:41;12.13;;;7.43;;
76935;SDS011;65881;52.438;16.744;2023-05-20T00:22:07;25.25;;;9.23;;
76935;SDS011;65881;52.438;16.744;2023-05-20T00:24:33;13.75;;;8.07;;
76935;SDS011;65881;52.438;16.744;2023-05-20T00:26:58;12.43;;;9.07;;
76935;SDS011;65881;52.438;16.744;2023-05-20T00:29:24;13.55;;;8.55;;
76935;SDS011;65881;52.438;16.744;2023-05-20T00:31:51;12.25;;;8.25;;
76935;SDS011;65881;52.438;16.744;2023-05-20T00:34:16;10.13;;;7.88;;
76935;SDS011;65881;52.438;16.744;2023-05-20T00:36:42;11.93;;;7.63;;
76935;SDS011;65881;52.438;16.744;2023-05-20T00:39:08;13.75;;;8.52;;
76935;SDS011;65881;52.438;16.744;2023-05-20T00:41:34;13.32;;;8.18;;
76935;SDS011;65881;52.438;16.744;2023-05-20T00:44:00;12.98;;;7.40;;
76935;SDS011;65881;52.438;16.744;2023-05-20T00:46:25;12.30;;;8.20;;
76935;SDS011;65881;52.438;16.744;2023-05-20T00:48:53;13.13;;;7.88;;
76935;SDS011;65881;52.438;16.744;2023-05-20T00:51:19;14.93;;;8.48;;
76935;SDS011;65881;52.438;16.744;2023-05-20T00:53:45;15.82;;;7.68;;
76935;SDS011;65881;52.438;16.744;2023-05-20T00:56:12;16.55;;;8.63;;
76935;SDS011;65881;52.438;16.744;2023-05-20T00:58:38;13.00;;;7.20;;
76935;SDS011;65881;52.438;16.744;2023-05-20T01:01:04;12.55;;;7.30;;
76935;SDS011;65881;52.438;16.744;2023-05-20T01:03:30;15.40;;;9.07;;
76935;SDS011;65881;52.438;16.744;2023-05-20T01:05:56;11.75;;;7.65;;
76935;SDS011;65881;52.438;16.744;2023-05-20T01:08:22;14.45;;;9.15;;
76935;SDS011;65881;52.438;16.744;2023-05-20T01:11:12;10.60;;;7.93;;
76935;SDS011;65881;52.438;16.744;2023-05-20T01:13:46;12.50;;;7.57;;
76935;SDS011;65881;52.438;16.744;2023-05-20T01:16:17;13.38;;;8.18;;
76935;SDS011;65881;52.438;16.744;2023-05-20T01:18:44;12.95;;;8.43;;
76935;SDS011;65881;52.438;16.744;2023-05-20T01:21:12;11.70;;;8.38;;
76935;SDS011;65881;52.438;16.744;2023-05-20T01:23:41;12.35;;;7.32;;
76935;SDS011;65881;52.438;16.744;2023-05-20T01:26:07;13.65;;;7.60;;
76935;SDS011;65881;52.438;16.744;2023-05-20T01:28:35;11.55;;;7.93;;
76935;SDS011;65881;52.438;16.744;2023-05-20T01:31:04;10.20;;;7.50;;
76935;SDS011;65881;52.438;16.744;2023-05-20T01:33:33;11.57;;;6.85;;
76935;SDS011;65881;52.438;16.744;2023-05-20T01:36:01;16.10;;;7.80;;
76935;SDS011;65881;52.438;16.744;2023-05-20T01:38:27;10.23;;;7.85;;
76935;SDS011;65881;52.438;16.744;2023-05-20T01:40:54;11.20;;;7.78;;
76935;SDS011;65881;52.438;16.744;2023-05-20T01:43:23;9.68;;;7.35;;
76935;SDS011;65881;52.438;16.744;2023-05-20T01:45:50;9.98;;;7.95;;
76935;SDS011;65881;52.438;16.744;2023-05-20T01:48:15;11.23;;;7.32;;
76935;SDS011;65881;52.438;16.744;2023-05-20T01:50:41;11.02;;;7.32;;
76935;SDS011;65881;52.438;16.744;2023-05-20T01:53:07;9.23;;;6.10;;
76935;SDS011;65881;52.438;16.744;2023-05-20T01:55:34;12.60;;;7.28;;
76935;SDS011;65881;52.438;16.744;2023-05-20T01:58:00;9.45;;;6.50;;
76935;SDS011;65881;52.438;16.744;2023-05-20T02:00:26;9.98;;;6.88;;
76935;SDS011;65881;52.438;16.744;2023-05-20T02:02:52;11.50;;;7.10;;
76935;SDS011;65881;52.438;16.744;2023-05-20T02:05:17;10.57;;;7.35;;
76935;SDS011;65881;52.438;16.744;2023-05-20T02:07:43;10.52;;;6.53;;
76935;SDS011;65881;52.438;16.744;2023-05-20T02:10:09;13.65;;;7.82;;
76935;SDS011;65881;52.438;16.744;2023-05-20T02:12:35;8.45;;;6.50;;
76935;SDS011;65881;52.438;16.744;2023-05-20T02:15:00;10.43;;;6.63;;
76935;SDS011;65881;52.438;16.744;2023-05-20T02:17:26;12.65;;;6.63;;
76935;SDS011;65881;52.438;16.744;2023-05-20T02:19:52;9.27;;;6.00;;
76935;SDS011;65881;52.438;16.744;2023-05-20T02:22:17;9.85;;;6.78;;
76935;SDS011;65881;52.438;16.744;2023-05-20T02:24:43;8.93;;;5.72;;
76935;SDS011;65881;52.438;16.744;2023-05-20T02:27:09;9.85;;;6.72;;
76935;SDS011;65881;52.438;16.744;2023-05-20T02:29:35;7.82;;;6.20;;
76935;SDS011;65881;52.438;16.744;2023-05-20T02:32:01;8.23;;;6.72;;
76935;SDS011;65881;52.438;16.744;2023-05-20T02:34:26;8.52;;;5.78;;
76935;SDS011;65881;52.438;16.744;2023-05-20T02:36:54;8.65;;;6.05;;
76935;SDS011;65881;52.438;16.744;2023-05-20T02:39:20;12.02;;;6.68;;
76935;SDS011;65881;52.438;16.744;2023-05-20T02:41:47;10.43;;;6.28;;
76935;SDS011;65881;52.438;16.744;2023-05-20T02:44:13;8.02;;;6.50;;
76935;SDS011;65881;52.438;16.744;2023-05-20T02:46:38;12.85;;;7.55;;
76935;SDS011;65881;52.438;16.744;2023-05-20T02:49:04;12.32;;;6.43;;
76935;SDS011;65881;52.438;16.744;2023-05-20T02:51:30;11.05;;;6.57;;
76935;SDS011;65881;52.438;16.744;2023-05-20T02:53:58;9.70;;;5.95;;
76935;SDS011;65881;52.438;16.744;2023-05-20T02:56:24;8.82;;;7.03;;
76935;SDS011;65881;52.438;16.744;2023-05-20T02:58:51;9.30;;;5.93;;
76935;SDS011;65881;52.438;16.744;2023-05-20T03:01:16;8.50;;;6.18;;
76935;SDS011;65881;52.438;16.744;2023-05-20T03:03:42;6.95;;;5.72;;
76935;SDS011;65881;52.438;16.744;2023-05-20T03:06:07;7.90;;;5.50;;
76935;SDS011;65881;52.438;16.744;2023-05-20T03:08:33;7.70;;;5.53;;
76935;SDS011;65881;52.438;16.744;2023-05-20T03:11:00;6.88;;;5.43;;
76935;SDS011;65881;52.438;16.744;2023-05-20T03:13:26;10.48;;;6.80;;
76935;SDS011;65881;52.438;16.744;2023-05-20T03:15:51;10.30;;;5.82;;
76935;SDS011;65881;52.438;16.744;2023-05-20T03:18:17;10.43;;;6.65;;
76935;SDS011;65881;52.438;16.744;2023-05-20T03:20:43;9.13;;;6.60;;
76935;SDS011;65881;52.438;16.744;2023-05-20T03:23:10;9.23;;;6.15;;
76935;SDS011;65881;52.438;16.744;2023-05-20T03:25:36;9.07;;;6.03;;
76935;SDS011;65881;52.438;16.744;2023-05-20T03:28:02;6.72;;;5.65;;
76935;SDS011;65881;52.438;16.744;2023-05-20T03:30:28;9.38;;;6.40;;
76935;SDS011;65881;52.438;16.744;2023-05-20T03:32:54;10.07;;;6.43;;
76935;SDS011;65881;52.438;16.744;2023-05-20T03:35:21;8.25;;;6.03;;
76935;SDS011;65881;52.438;16.744;2023-05-20T03:37:47;8.05;;;6.18;;
76935;SDS011;65881;52.438;16.744;2023-05-20T03:40:15;9.13;;;6.35;;
76935;SDS011;65881;52.438;16.744;2023-05-20T03:42:41;8.68;;;6.57;;
76935;SDS011;65881;52.438;16.744;2023-05-20T03:45:07;10.18;;;7.20;;
76935;SDS011;65881;52.438;16.744;2023-05-20T03:47:33;8.90;;;6.85;;
76935;SDS011;65881;52.438;16.744;2023-05-20T03:49:59;9.15;;;5.88;;
76935;SDS011;65881;52.438;16.744;2023-05-20T03:52:24;10.25;;;6.50;;
76935;SDS011;65881;52.438;16.744;2023-05-20T03:54:50;9.48;;;6.40;;
76935;SDS011;65881;52.438;16.744;2023-05-20T03:57:17;9.95;;;6.35;;
76935;SDS011;65881;52.438;16.744;2023-05-20T03:59:43;9.68;;;6.55;;
76935;SDS011;65881;52.438;16.744;2023-05-20T04:02:09;9.50;;;5.78;;
76935;SDS011;65881;52.438;16.744;2023-05-20T04:04:35;7.47;;;5.70;;
76935;SDS011;65881;52.438;16.744;2023-05-20T04:07:00;9.52;;;6.25;;
76935;SDS011;65881;52.438;16.744;2023-05-20T04:09:31;11.57;;;5.97;;
76935;SDS011;65881;52.438;16.744;2023-05-20T04:11:57;8.05;;;5.80;;
76935;SDS011;65881;52.438;16.744;2023-05-20T04:14:23;8.35;;;5.47;;
76935;SDS011;65881;52.438;16.744;2023-05-20T04:16:48;7.95;;;6.03;;
76935;SDS011;65881;52.438;16.744;2023-05-20T04:19:15;8.65;;;6.03;;
76935;SDS011;65881;52.438;16.744;2023-05-20T04:21:43;11.73;;;7.47;;
76935;SDS011;65881;52.438;16.744;2023-05-20T04:24:09;9.65;;;6.18;;
76935;SDS011;65881;52.438;16.744;2023-05-20T04:26:35;13.93;;;7.07;;
76935;SDS011;65881;52.438;16.744;2023-05-20T04:29:00;8.27;;;6.68;;
76935;SDS011;65881;52.438;16.744;2023-05-20T04:31:28;9.93;;;7.70;;
76935;SDS011;65881;52.438;16.744;2023-05-20T04:33:54;10.52;;;6.80;;
76935;SDS011;65881;52.438;16.744;2023-05-20T04:36:20;11.07;;;9.18;;
76935;SDS011;65881;52.438;16.744;2023-05-20T04:38:46;9.32;;;7.43;;
76935;SDS011;65881;52.438;16.744;2023-05-20T04:41:13;8.35;;;6.65;;
76935;SDS011;65881;52.438;16.744;2023-05-20T04:43:40;8.98;;;6.47;;
76935;SDS011;65881;52.438;16.744;2023-05-20T04:46:05;9.90;;;6.38;;
76935;SDS011;65881;52.438;16.744;2023-05-20T04:48:32;8.32;;;6.57;;
76935;SDS011;65881;52.438;16.744;2023-05-20T04:50:57;8.65;;;6.22;;
76935;SDS011;65881;52.438;16.744;2023-05-20T04:53:23;9.38;;;6.03;;
76935;SDS011;65881;52.438;16.744;2023-05-20T04:55:49;10.25;;;6.43;;
76935;SDS011;65881;52.438;16.744;2023-05-20T04:58:18;9.90;;;6.00;;
76935;SDS011;65881;52.438;16.744;2023-05-20T05:00:44;13.93;;;6.38;;
76935;SDS011;65881;52.438;16.744;2023-05-20T05:03:10;11.23;;;6.57;;
76935;SDS011;65881;52.438;16.744;2023-05-20T05:05:37;8.82;;;6.35;;
76935;SDS011;65881;52.438;16.744;2023-05-20T05:08:03;8.52;;;6.28;;
76935;SDS011;65881;52.438;16.744;2023-05-20T05:10:30;8.35;;;6.18;;
76935;SDS011;65881;52.438;16.744;2023-05-20T05:12:56;6.60;;;5.43;;
76935;SDS011;65881;52.438;16.744;2023-05-20T05:15:21;9.82;;;6.72;;
76935;SDS011;65881;52.438;16.744;2023-05-20T05:17:48;10.85;;;7.20;;
76935;SDS011;65881;52.438;16.744;2023-05-20T05:20:14;9.70;;;6.47;;
76935;SDS011;65881;52.438;16.744;2023-05-20T05:22:39;9.30;;;6.57;;
76935;SDS011;65881;52.438;16.744;2023-05-20T05:25:06;11.07;;;7.00;;
76935;SDS011;65881;52.438;16.744;2023-05-20T05:27:32;11.18;;;5.75;;
76935;SDS011;65881;52.438;16.744;2023-05-20T05:29:59;10.48;;;7.35;;
76935;SDS011;65881;52.438;16.744;2023-05-20T05:32:25;9.38;;;7.00;;
76935;SDS011;65881;52.438;16.744;2023-05-20T05:34:51;11.25;;;6.10;;
76935;SDS011;65881;52.438;16.744;2023-05-20T05:37:17;13.35;;;7.65;;
76935;SDS011;65881;52.438;16.744;2023-05-20T05:39:42;11.52;;;7.45;;
76935;SDS011;65881;52.438;16.744;2023-05-20T05:42:08;9.43;;;6.32;;
76935;SDS011;65881;52.438;16.744;2023-05-20T05:44:34;8.50;;;6.30;;
76935;SDS011;65881;52.438;16.744;2023-05-20T05:46:59;9.95;;;6.20;;
76935;SDS011;65881;52.438;16.744;2023-05-20T05:49:25;10.43;;;6.15;;
76935;SDS011;65881;52.438;16.744;2023-05-20T05:51:51;7.97;;;6.13;;
76935;SDS011;65881;52.438;16.744;2023-05-20T05:54:17;8.32;;;6.82;;
76935;SDS011;65881;52.438;16.744;2023-05-20T05:56:44;9.57;;;6.93;;
76935;SDS011;65881;52.438;16.744;2023-05-20T05:59:10;9.98;;;7.13;;
76935;SDS011;65881;52.438;16.744;2023-05-20T06:01:35;11.10;;;6.72;;
76935;SDS011;65881;52.438;16.744;2023-05-20T06:04:01;10.48;;;6.75;;
76935;SDS011;65881;52.438;16.744;2023-05-20T06:06:27;9.32;;;7.32;;
76935;SDS011;65881;52.438;16.744;2023-05-20T06:08:53;13.77;;;7.65;;
76935;SDS011;65881;52.438;16.744;2023-05-20T06:11:19;9.75;;;7.75;;
76935;SDS011;65881;52.438;16.744;2023-05-20T06:13:45;15.70;;;8.05;;
76935;SDS011;65881;52.438;16.744;2023-05-20T06:16:11;11.38;;;7.63;;
76935;SDS011;65881;52.438;16.744;2023-05-20T06:18:36;11.98;;;7.57;;
76935;SDS011;65881;52.438;16.744;2023-05-20T06:21:02;11.18;;;7.45;;
76935;SDS011;65881;52.438;16.744;2023-05-20T06:23:28;14.13;;;8.13;;
76935;SDS011;65881;52.438;16.744;2023-05-20T06:25:57;11.07;;;7.45;;
76935;SDS011;65881;52.438;16.744;2023-05-20T06:28:23;14.52;;;7.68;;
76935;SDS011;65881;52.438;16.744;2023-05-20T06:30:49;10.90;;;7.63;;
76935;SDS011;65881;52.438;16.744;2023-05-20T06:33:16;10.32;;;7.10;;
76935;SDS011;65881;52.438;16.744;2023-05-20T06:35:44;8.60;;;6.53;;
76935;SDS011;65881;52.438;16.744;2023-05-20T06:38:09;14.05;;;8.05;;
76935;SDS011;65881;52.438;16.744;2023-05-20T06:40:35;10.48;;;6.57;;
76935;SDS011;65881;52.438;16.744;2023-05-20T06:43:01;10.55;;;7.32;;
76935;SDS011;65881;52.438;16.744;2023-05-20T06:45:26;13.98;;;7.65;;
76935;SDS011;65881;52.438;16.744;2023-05-20T06:47:52;9.25;;;7.32;;
76935;SDS011;65881;52.438;16.744;2023-05-20T06:50:18;9.88;;;6.72;;
76935;SDS011;65881;52.438;16.744;2023-05-20T06:52:44;9.05;;;7.00;;
76935;SDS011;65881;52.438;16.744;2023-05-20T06:55:10;10.55;;;7.22;;
76935;SDS011;65881;52.438;16.744;2023-05-20T06:57:36;13.07;;;7.00;;
76935;SDS011;65881;52.438;16.744;2023-05-20T07:00:03;14.93;;;7.68;;
76935;SDS011;65881;52.438;16.744;2023-05-20T07:02:29;12.52;;;7.78;;
76935;SDS011;65881;52.438;16.744;2023-05-20T07:04:57;10.82;;;8.27;;
76935;SDS011;65881;52.438;16.744;2023-05-20T07:07:23;9.25;;;7.57;;
76935;SDS011;65881;52.438;16.744;2023-05-20T07:09:48;8.30;;;6.68;;
76935;SDS011;65881;52.438;16.744;2023-05-20T07:12:14;10.70;;;6.97;;
76935;SDS011;65881;52.438;16.744;2023-05-20T07:14:40;8.73;;;6.50;;
76935;SDS011;65881;52.438;16.744;2023-05-20T07:17:06;12.23;;;7.05;;
76935;SDS011;65881;52.438;16.744;2023-05-20T07:19:32;8.85;;;7.85;;
76935;SDS011;65881;52.438;16.744;2023-05-20T07:21:58;12.38;;;7.78;;
76935;SDS011;65881;52.438;16.744;2023-05-20T07:24:24;11.90;;;6.30;;
76935;SDS011;65881;52.438;16.744;2023-05-20T07:26:50;15.32;;;7.60;;
76935;SDS011;65881;52.438;16.744;2023-05-20T07:29:16;12.20;;;7.78;;
76935;SDS011;65881;52.438;16.744;2023-05-20T07:31:41;12.45;;;8.20;;
76935;SDS011;65881;52.438;16.744;2023-05-20T07:34:07;10.73;;;8.35;;
76935;SDS011;65881;52.438;16.744;2023-05-20T07:36:33;9.63;;;6.55;;
76935;SDS011;65881;52.438;16.744;2023-05-20T07:38:59;12.23;;;7.70;;
76935;SDS011;65881;52.438;16.744;2023-05-20T07:41:25;14.75;;;7.80;;
76935;SDS011;65881;52.438;16.744;2023-05-20T07:43:51;9.18;;;6.93;;
76935;SDS011;65881;52.438;16.744;2023-05-20T07:46:16;17.02;;;8.55;;
76935;SDS011;65881;52.438;16.744;2023-05-20T07:48:42;15.70;;;7.57;;
76935;SDS011;65881;52.438;16.744;2023-05-20T07:51:09;8.98;;;6.20;;
76935;SDS011;65881;52.438;16.744;2023-05-20T07:53:35;13.88;;;8.15;;
76935;SDS011;65881;52.438;16.744;2023-05-20T07:56:01;9.20;;;7.10;;
76935;SDS011;65881;52.438;16.744;2023-05-20T07:58:27;9.25;;;6.47;;
76935;SDS011;65881;52.438;16.744;2023-05-20T08:00:53;12.95;;;7.03;;
76935;SDS011;65881;52.438;16.744;2023-05-20T08:03:19;12.05;;;8.25;;
76935;SDS011;65881;52.438;16.744;2023-05-20T08:05:46;9.77;;;6.97;;
76935;SDS011;65881;52.438;16.744;2023-05-20T08:08:12;11.45;;;7.32;;
76935;SDS011;65881;52.438;16.744;2023-05-20T08:10:37;11.30;;;7.78;;
76935;SDS011;65881;52.438;16.744;2023-05-20T08:13:03;12.15;;;7.35;;
76935;SDS011;65881;52.438;16.744;2023-05-20T08:15:32;12.60;;;9.15;;
76935;SDS011;65881;52.438;16.744;2023-05-20T08:17:58;10.90;;;7.82;;
76935;SDS011;65881;52.438;16.744;2023-05-20T08:20:23;9.60;;;7.30;;
76935;SDS011;65881;52.438;16.744;2023-05-20T08:22:50;9.40;;;7.45;;
76935;SDS011;65881;52.438;16.744;2023-05-20T08:25:16;10.93;;;7.50;;
76935;SDS011;65881;52.438;16.744;2023-05-20T08:27:43;11.07;;;7.53;;
76935;SDS011;65881;52.438;16.744;2023-05-20T08:30:09;13.27;;;8.27;;
76935;SDS011;65881;52.438;16.744;2023-05-20T08:32:35;12.23;;;7.60;;
76935;SDS011;65881;52.438;16.744;2023-05-20T08:35:02;11.13;;;7.18;;
76935;SDS011;65881;52.438;16.744;2023-05-20T08:37:28;14.52;;;8.60;;
76935;SDS011;65881;52.438;16.744;2023-05-20T08:39:54;11.20;;;8.55;;
76935;SDS011;65881;52.438;16.744;2023-05-20T08:42:23;13.48;;;9.45;;
76935;SDS011;65881;52.438;16.744;2023-05-20T08:44:52;14.82;;;9.38;;
76935;SDS011;65881;52.438;16.744;2023-05-20T08:47:20;15.18;;;10.05;;
76935;SDS011;65881;52.438;16.744;2023-05-20T08:49:47;11.55;;;8.45;;
76935;SDS011;65881;52.438;16.744;2023-05-20T08:52:13;12.45;;;8.70;;
76935;SDS011;65881;52.438;16.744;2023-05-20T08:54:44;12.82;;;8.13;;
76935;SDS011;65881;52.438;16.744;2023-05-20T08:57:11;12.25;;;7.97;;
76935;SDS011;65881;52.438;16.744;2023-05-20T08:59:41;15.95;;;10.52;;
76935;SDS011;65881;52.438;16.744;2023-05-20T09:02:08;16.48;;;9.57;;
76935;SDS011;65881;52.438;16.744;2023-05-20T09:04:35;13.98;;;9.02;;
76935;SDS011;65881;52.438;16.744;2023-05-20T09:07:02;14.10;;;9.43;;
76935;SDS011;65881;52.438;16.744;2023-05-20T09:09:53;17.98;;;9.93;;
76935;SDS011;65881;52.438;16.744;2023-05-20T09:12:19;14.95;;;9.45;;
76935;SDS011;65881;52.438;16.744;2023-05-20T09:14:46;15.68;;;9.80;;
76935;SDS011;65881;52.438;16.744;2023-05-20T09:17:12;11.48;;;8.60;;
76935;SDS011;65881;52.438;16.744;2023-05-20T09:19:38;12.93;;;9.43;;
76935;SDS011;65881;52.438;16.744;2023-05-20T09:22:04;13.25;;;8.80;;
76935;SDS011;65881;52.438;16.744;2023-05-20T09:24:30;12.50;;;8.63;;
76935;SDS011;65881;52.438;16.744;2023-05-20T09:26:56;14.93;;;9.95;;
76935;SDS011;65881;52.438;16.744;2023-05-20T09:29:23;16.98;;;10.43;;
76935;SDS011;65881;52.438;16.744;2023-05-20T09:31:49;16.85;;;10.00;;
76935;SDS011;65881;52.438;16.744;2023-05-20T09:34:18;16.27;;;9.80;;
76935;SDS011;65881;52.438;16.744;2023-05-20T09:36:45;15.25;;;9.07;;
76935;SDS011;65881;52.438;16.744;2023-05-20T09:39:16;14.20;;;10.18;;
76935;SDS011;65881;52.438;16.744;2023-05-20T09:44:30;15.07;;;11.32;;
76935;SDS011;65881;52.438;16.744;2023-05-20T09:46:58;14.60;;;11.63;;
76935;SDS011;65881;52.438;16.744;2023-05-20T09:49:25;16.20;;;10.85;;
76935;SDS011;65881;52.438;16.744;2023-05-20T09:51:51;14.55;;;9.88;;
76935;SDS011;65881;52.438;16.744;2023-05-20T09:54:18;17.48;;;9.80;;
76935;SDS011;65881;52.438;16.744;2023-05-20T09:56:45;16.02;;;10.98;;
76935;SDS011;65881;52.438;16.744;2023-05-20T09:59:12;16.00;;;11.40;;
76935;SDS011;65881;52.438;16.744;2023-05-20T10:01:41;21.33;;;12.65;;
76935;SDS011;65881;52.438;16.744;2023-05-20T10:04:07;16.38;;;11.18;;
76935;SDS011;65881;52.438;16.744;2023-05-20T10:12:30;16.30;;;11.02;;
76935;SDS011;65881;52.438;16.744;2023-05-20T10:15:02;19.33;;;12.57;;
76935;SDS011;65881;52.438;16.744;2023-05-20T10:20:20;15.85;;;12.05;;
76935;SDS011;65881;52.438;16.744;2023-05-20T10:22:53;15.70;;;11.20;;
76935;SDS011;65881;52.438;16.744;2023-05-20T10:25:23;16.55;;;11.32;;
76935;SDS011;65881;52.438;16.744;2023-05-20T10:27:50;14.10;;;11.35;;
76935;SDS011;65881;52.438;16.744;2023-05-20T10:30:17;17.25;;;12.25;;
76935;SDS011;65881;52.438;16.744;2023-05-20T10:32:48;16.52;;;12.75;;
76935;SDS011;65881;52.438;16.744;2023-05-20T10:35:21;17.42;;;11.65;;
76935;SDS011;65881;52.438;16.744;2023-05-20T10:37:50;14.73;;;11.50;;
76935;SDS011;65881;52.438;16.744;2023-05-20T10:40:19;16.23;;;10.70;;
76935;SDS011;65881;52.438;16.744;2023-05-20T10:42:45;16.25;;;12.20;;
76935;SDS011;65881;52.438;16.744;2023-05-20T10:45:23;12.98;;;9.95;;
76935;SDS011;65881;52.438;16.744;2023-05-20T10:47:56;13.82;;;10.35;;
76935;SDS011;65881;52.438;16.744;2023-05-20T10:50:35;15.13;;;10.57;;
76935;SDS011;65881;52.438;16.744;2023-05-20T10:53:03;13.68;;;10.02;;
76935;SDS011;65881;52.438;16.744;2023-05-20T10:55:37;16.17;;;12.98;;
76935;SDS011;65881;52.438;16.744;2023-05-20T10:58:04;12.30;;;10.82;;
76935;SDS011;65881;52.438;16.744;2023-05-20T11:00:31;16.55;;;11.30;;
76935;SDS011;65881;52.438;16.744;2023-05-20T11:02:58;13.35;;;10.65;;
76935;SDS011;65881;52.438;16.744;2023-05-20T11:05:25;14.30;;;10.60;;
76935;SDS011;65881;52.438;16.744;2023-05-20T11:07:59;15.18;;;9.95;;
76935;SDS011;65881;52.438;16.744;2023-05-20T11:10:25;12.77;;;11.20;;
76935;SDS011;65881;52.438;16.744;2023-05-20T11:12:52;11.98;;;10.20;;
76935;SDS011;65881;52.438;16.744;2023-05-20T11:15:18;12.75;;;10.18;;
76935;SDS011;65881;52.438;16.744;2023-05-20T11:17:56;12.63;;;10.80;;
76935;SDS011;65881;52.438;16.744;2023-05-20T11:20:25;14.02;;;11.43;;
76935;SDS011;65881;52.438;16.744;2023-05-20T11:22:51;13.32;;;11.52;;
76935;SDS011;65881;52.438;16.744;2023-05-20T11:25:21;15.77;;;12.25;;
76935;SDS011;65881;52.438;16.744;2023-05-20T11:27:48;14.80;;;10.35;;
76935;SDS011;65881;52.438;16.744;2023-05-20T11:30:20;14.07;;;12.38;;
76935;SDS011;65881;52.438;16.744;2023-05-20T11:33:02;15.23;;;11.55;;
76935;SDS011;65881;52.438;16.744;2023-05-20T11:35:29;12.77;;;10.30;;
76935;SDS011;65881;52.438;16.744;2023-05-20T11:37:56;16.08;;;11.93;;
76935;SDS011;65881;52.438;16.744;2023-05-20T11:40:33;16.33;;;11.52;;
76935;SDS011;65881;52.438;16.744;2023-05-20T11:43:05;14.07;;;10.85;;
76935;SDS011;65881;52.438;16.744;2023-05-20T11:45:53;13.75;;;11.13;;
76935;SDS011;65881;52.438;16.744;2023-05-20T11:48:20;13.38;;;11.57;;
76935;SDS011;65881;52.438;16.744;2023-05-20T11:50:46;14.20;;;12.15;;
76935;SDS011;65881;52.438;16.744;2023-05-20T11:53:16;13.73;;;12.23;;
76935;SDS011;65881;52.438;16.744;2023-05-20T11:58:17;13.27;;;11.85;;
76935;SDS011;65881;52.438;16.744;2023-05-20T12:00:44;13.73;;;12.23;;
76935;SDS011;65881;52.438;16.744;2023-05-20T12:03:10;19.05;;;12.57;;
76935;SDS011;65881;52.438;16.744;2023-05-20T12:05:36;14.45;;;11.60;;
76935;SDS011;65881;52.438;16.744;2023-05-20T12:08:02;15.35;;;12.10;;
76935;SDS011;65881;52.438;16.744;2023-05-20T12:10:31;13.55;;;10.23;;
76935;SDS011;65881;52.438;16.744;2023-05-20T12:12:57;15.50;;;11.73;;
76935;SDS011;65881;52.438;16.744;2023-05-20T12:15:23;19.15;;;11.43;;
76935;SDS011;65881;52.438;16.744;2023-05-20T12:17:51;14.68;;;10.60;;
76935;SDS011;65881;52.438;16.744;2023-05-20T12:20:19;10.75;;;9.30;;
76935;SDS011;65881;52.438;16.744;2023-05-20T12:22:46;15.93;;;10.40;;
76935;SDS011;65881;52.438;16.744;2023-05-20T12:25:13;12.38;;;9.68;;
76935;SDS011;65881;52.438;16.744;2023-05-20T12:27:41;11.90;;;10.35;;
76935;SDS011;65881;52.438;16.744;2023-05-20T12:30:08;12.73;;;9.88;;
76935;SDS011;65881;52.438;16.744;2023-05-20T12:32:35;11.98;;;10.75;;
76935;SDS011;65881;52.438;16.744;2023-05-20T12:35:01;11.75;;;9.45;;
76935;SDS011;65881;52.438;16.744;2023-05-20T12:37:27;13.95;;;10.02;;
76935;SDS011;65881;52.438;16.744;2023-05-20T12:39:53;10.70;;;9.15;;
76935;SDS011;65881;52.438;16.744;2023-05-20T12:42:19;14.05;;;9.32;;
76935;SDS011;65881;52.438;16.744;2023-05-20T12:44:45;13.77;;;10.38;;
76935;SDS011;65881;52.438;16.744;2023-05-20T12:47:11;19.02;;;11.07;;
76935;SDS011;65881;52.438;16.744;2023-05-20T12:49:37;12.77;;;10.00;;
76935;SDS011;65881;52.438;16.744;2023-05-20T12:52:02;12.30;;;10.38;;
76935;SDS011;65881;52.438;16.744;2023-05-20T12:54:31;11.20;;;8.23;;
76935;SDS011;65881;52.438;16.744;2023-05-20T12:56:57;12.07;;;8.85;;
76935;SDS011;65881;52.438;16.744;2023-05-20T12:59:23;11.68;;;9.05;;
76935;SDS011;65881;52.438;16.744;2023-05-20T13:01:50;11.15;;;8.65;;
76935;SDS011;65881;52.438;16.744;2023-05-20T13:04:16;10.63;;;8.63;;
76935;SDS011;65881;52.438;16.744;2023-05-20T13:06:41;11.15;;;8.77;;
76935;SDS011;65881;52.438;16.744;2023-05-20T13:09:07;9.68;;;8.73;;
76935;SDS011;65881;52.438;16.744;2023-05-20T13:11:33;16.13;;;8.98;;
76935;SDS011;65881;52.438;16.744;2023-05-20T13:13:59;11.48;;;8.30;;
76935;SDS011;65881;52.438;16.744;2023-05-20T13:16:25;14.85;;;9.18;;
76935;SDS011;65881;52.438;16.744;2023-05-20T13:18:51;10.38;;;9.27;;
76935;SDS011;65881;52.438;16.744;2023-05-20T13:21:16;12.50;;;9.88;;
76935;SDS011;65881;52.438;16.744;2023-05-20T13:23:43;12.90;;;8.85;;
76935;SDS011;65881;52.438;16.744;2023-05-20T13:26:09;12.00;;;7.75;;
76935;SDS011;65881;52.438;16.744;2023-05-20T13:28:35;11.38;;;8.90;;
76935;SDS011;65881;52.438;16.744;2023-05-20T13:31:01;10.20;;;8.10;;
76935;SDS011;65881;52.438;16.744;2023-05-20T13:33:29;11.38;;;9.27;;
76935;SDS011;65881;52.438;16.744;2023-05-20T13:35:55;10.88;;;8.27;;
76935;SDS011;65881;52.438;16.744;2023-05-20T13:38:20;12.10;;;8.30;;
76935;SDS011;65881;52.438;16.744;2023-05-20T13:40:46;9.55;;;8.55;;
76935;SDS011;65881;52.438;16.744;2023-05-20T13:43:13;10.18;;;7.63;;
76935;SDS011;65881;52.438;16.744;2023-05-20T13:45:38;8.57;;;7.15;;
76935;SDS011;65881;52.438;16.744;2023-05-20T13:48:04;10.70;;;8.52;;
76935;SDS011;65881;52.438;16.744;2023-05-20T13:50:30;9.15;;;7.95;;
76935;SDS011;65881;52.438;16.744;2023-05-20T13:52:56;10.85;;;8.10;;
76935;SDS011;65881;52.438;16.744;2023-05-20T13:55:22;8.98;;;7.32;;
76935;SDS011;65881;52.438;16.744;2023-05-20T13:57:47;9.30;;;8.35;;
76935;SDS011;65881;52.438;16.744;2023-05-20T14:00:13;10.38;;;8.90;;
76935;SDS011;65881;52.438;16.744;2023-05-20T14:02:39;9.82;;;8.38;;
76935;SDS011;65881;52.438;16.744;2023-05-20T14:05:05;9.05;;;7.43;;
76935;SDS011;65881;52.438;16.744;2023-05-20T14:07:31;10.23;;;8.40;;
76935;SDS011;65881;52.438;16.744;2023-05-20T14:09:57;10.77;;;8.70;;
76935;SDS011;65881;52.438;16.744;2023-05-20T14:12:23;12.23;;;9.50;;
76935;SDS011;65881;52.438;16.744;2023-05-20T14:14:49;12.20;;;9.75;;
76935;SDS011;65881;52.438;16.744;2023-05-20T14:17:15;9.65;;;8.30;;
76935;SDS011;65881;52.438;16.744;2023-05-20T14:19:40;13.60;;;9.38;;
76935;SDS011;65881;52.438;16.744;2023-05-20T14:22:06;12.70;;;9.88;;
76935;SDS011;65881;52.438;16.744;2023-05-20T14:24:32;14.57;;;11.15;;
76935;SDS011;65881;52.438;16.744;2023-05-20T14:26:57;15.98;;;11.38;;
76935;SDS011;65881;52.438;16.744;2023-05-20T14:29:23;12.35;;;8.90;;
76935;SDS011;65881;52.438;16.744;2023-05-20T14:31:49;12.70;;;8.93;;
76935;SDS011;65881;52.438;16.744;2023-05-20T14:34:14;12.00;;;10.70;;